sensor_id;sensor_type;location;lat;lon;timestamp;temperature;humidity
5962;DHT22;3007;50.770;0.250;2023-12-04T00:01:13;7.50;99.90
5962;DHT22;3007;50.770;0.250;2023-12-04T00:03:40;7.40;99.90
5962;DHT22;3007;50.770;0.250;2023-12-04T00:06:08;7.50;99.90
5962;DHT22;3007;50.770;0.250;2023-12-04T00:08:35;7.40;99.90
5962;DHT22;3007;50.770;0.250;2023-12-04T00:11:03;7.30;99.90
5962;DHT22;3007;50.770;0.250;2023-12-04T00:13:30;7.40;99.90
5962;DHT22;3007;50.770;0.250;2023-12-04T00:15:56;7.40;99.90
5962;DHT22;3007;50.770;0.250;2023-12-04T00:18:25;7.40;99.90
5962;DHT22;3007;50.770;0.250;2023-12-04T00:20:52;7.40;99.90
5962;DHT22;3007;50.770;0.250;2023-12-04T00:23:19;7.40;99.90
5962;DHT22;3007;50.770;0.250;2023-12-04T00:25:45;7.40;99.90
5962;DHT22;3007;50.770;0.250;2023-12-04T00:28:12;7.30;99.90
5962;DHT22;3007;50.770;0.250;2023-12-04T00:30:39;7.30;99.90
5962;DHT22;3007;50.770;0.250;2023-12-04T00:33:06;7.30;99.90
5962;DHT22;3007;50.770;0.250;2023-12-04T00:35:34;7.30;99.90
5962;DHT22;3007;50.770;0.250;2023-12-04T00:38:01;7.30;99.90
5962;DHT22;3007;50.770;0.250;2023-12-04T00:40:28;7.30;99.90
5962;DHT22;3007;50.770;0.250;2023-12-04T00:42:55;7.20;99.90
5962;DHT22;3007;50.770;0.250;2023-12-04T00:45:21;7.20;99.90
5962;DHT22;3007;50.770;0.250;2023-12-04T00:47:49;7.20;99.90
5962;DHT22;3007;50.770;0.250;2023-12-04T00:50:16;7.20;99.90
5962;DHT22;3007;50.770;0.250;2023-12-04T00:52:44;7.20;99.90
5962;DHT22;3007;50.770;0.250;2023-12-04T00:55:11;7.20;99.90
5962;DHT22;3007;50.770;0.250;2023-12-04T00:57:38;7.20;99.90
5962;DHT22;3007;50.770;0.250;2023-12-04T01:00:06;7.20;99.90
5962;DHT22;3007;50.770;0.250;2023-12-04T01:02:33;7.20;99.90
5962;DHT22;3007;50.770;0.250;2023-12-04T01:05:00;7.20;99.90
5962;DHT22;3007;50.770;0.250;2023-12-04T01:07:27;7.10;99.90
5962;DHT22;3007;50.770;0.250;2023-12-04T01:09:56;7.10;99.90
5962;DHT22;3007;50.770;0.250;2023-12-04T01:12:22;7.10;99.90
5962;DHT22;3007;50.770;0.250;2023-12-04T01:14:49;7.00;99.90
5962;DHT22;3007;50.770;0.250;2023-12-04T01:17:16;7.00;99.90
5962;DHT22;3007;50.770;0.250;2023-12-04T01:19:43;7.00;99.90
5962;DHT22;3007;50.770;0.250;2023-12-04T01:22:10;7.00;99.90
5962;DHT22;3007;50.770;0.250;2023-12-04T01:24:37;7.00;99.90
5962;DHT22;3007;50.770;0.250;2023-12-04T01:27:05;7.10;99.90
5962;DHT22;3007;50.770;0.250;2023-12-04T01:29:32;7.10;99.90
5962;DHT22;3007;50.770;0.250;2023-12-04T01:32:00;7.10;99.90
5962;DHT22;3007;50.770;0.250;2023-12-04T01:34:27;7.10;99.90
5962;DHT22;3007;50.770;0.250;2023-12-04T01:36:53;7.10;99.90
5962;DHT22;3007;50.770;0.250;2023-12-04T01:39:20;7.10;99.90
5962;DHT22;3007;50.770;0.250;2023-12-04T01:41:47;7.20;99.90
5962;DHT22;3007;50.770;0.250;2023-12-04T01:44:16;7.10;99.90
5962;DHT22;3007;50.770;0.250;2023-12-04T01:46:43;7.10;99.90
5962;DHT22;3007;50.770;0.250;2023-12-04T01:49:10;7.10;99.90
5962;DHT22;3007;50.770;0.250;2023-12-04T01:51:37;7.10;99.90
5962;DHT22;3007;50.770;0.250;2023-12-04T01:54:05;7.10;99.90
5962;DHT22;3007;50.770;0.250;2023-12-04T01:56:33;7.10;99.90
5962;DHT22;3007;50.770;0.250;2023-12-04T01:59:00;7.10;99.90
5962;DHT22;3007;50.770;0.250;2023-12-04T02:01:30;7.10;99.90
5962;DHT22;3007;50.770;0.250;2023-12-04T02:03:57;7.10;99.90
5962;DHT22;3007;50.770;0.250;2023-12-04T02:06:26;7.10;99.90
5962;DHT22;3007;50.770;0.250;2023-12-04T02:08:52;7.20;99.90
5962;DHT22;3007;50.770;0.250;2023-12-04T02:11:19;7.20;99.90
5962;DHT22;3007;50.770;0.250;2023-12-04T02:13:46;7.20;99.90
5962;DHT22;3007;50.770;0.250;2023-12-04T02:16:15;7.20;99.90
5962;DHT22;3007;50.770;0.250;2023-12-04T02:18:46;7.20;99.90
5962;DHT22;3007;50.770;0.250;2023-12-04T02:21:13;7.10;99.90
5962;DHT22;3007;50.770;0.250;2023-12-04T02:23:40;7.20;99.90
5962;DHT22;3007;50.770;0.250;2023-12-04T02:26:12;7.20;99.90
5962;DHT22;3007;50.770;0.250;2023-12-04T02:28:41;7.20;99.90
5962;DHT22;3007;50.770;0.250;2023-12-04T02:31:11;7.20;99.90
5962;DHT22;3007;50.770;0.250;2023-12-04T02:33:39;7.20;99.90
5962;DHT22;3007;50.770;0.250;2023-12-04T02:36:08;7.20;99.90
5962;DHT22;3007;50.770;0.250;2023-12-04T02:38:37;7.20;99.90
5962;DHT22;3007;50.770;0.250;2023-12-04T02:41:05;7.20;99.90
5962;DHT22;3007;50.770;0.250;2023-12-04T02:43:33;7.20;99.90
5962;DHT22;3007;50.770;0.250;2023-12-04T02:46:00;7.30;99.90
5962;DHT22;3007;50.770;0.250;2023-12-04T02:48:26;7.30;99.90
5962;DHT22;3007;50.770;0.250;2023-12-04T02:50:53;7.20;99.90
5962;DHT22;3007;50.770;0.250;2023-12-04T02:53:20;7.20;99.90
5962;DHT22;3007;50.770;0.250;2023-12-04T02:55:47;7.30;99.90
5962;DHT22;3007;50.770;0.250;2023-12-04T02:58:14;7.30;99.90
5962;DHT22;3007;50.770;0.250;2023-12-04T03:00:42;7.40;99.90
5962;DHT22;3007;50.770;0.250;2023-12-04T03:03:09;7.30;99.90
5962;DHT22;3007;50.770;0.250;2023-12-04T03:05:35;7.30;99.90
5962;DHT22;3007;50.770;0.250;2023-12-04T03:08:03;7.30;99.90
5962;DHT22;3007;50.770;0.250;2023-12-04T03:10:32;7.30;99.90
5962;DHT22;3007;50.770;0.250;2023-12-04T03:12:58;7.30;99.90
5962;DHT22;3007;50.770;0.250;2023-12-04T03:15:25;7.30;99.90
5962;DHT22;3007;50.770;0.250;2023-12-04T03:17:55;7.30;99.90
5962;DHT22;3007;50.770;0.250;2023-12-04T03:20:22;7.20;99.90
5962;DHT22;3007;50.770;0.250;2023-12-04T03:22:49;7.20;99.90
5962;DHT22;3007;50.770;0.250;2023-12-04T03:25:16;7.20;99.90
5962;DHT22;3007;50.770;0.250;2023-12-04T03:27:43;7.20;99.90
5962;DHT22;3007;50.770;0.250;2023-12-04T03:30:10;7.20;99.90
5962;DHT22;3007;50.770;0.250;2023-12-04T03:32:37;7.10;99.90
5962;DHT22;3007;50.770;0.250;2023-12-04T03:35:06;7.20;99.90
5962;DHT22;3007;50.770;0.250;2023-12-04T03:37:34;7.10;99.90
5962;DHT22;3007;50.770;0.250;2023-12-04T03:40:01;7.10;99.90
5962;DHT22;3007;50.770;0.250;2023-12-04T03:42:27;7.10;99.90
5962;DHT22;3007;50.770;0.250;2023-12-04T03:44:54;7.10;99.90
5962;DHT22;3007;50.770;0.250;2023-12-04T03:47:21;7.10;99.90
5962;DHT22;3007;50.770;0.250;2023-12-04T03:49:49;7.10;99.90
5962;DHT22;3007;50.770;0.250;2023-12-04T03:52:17;7.20;99.90
5962;DHT22;3007;50.770;0.250;2023-12-04T03:54:45;7.10;99.90
5962;DHT22;3007;50.770;0.250;2023-12-04T03:57:12;7.10;99.90
5962;DHT22;3007;50.770;0.250;2023-12-04T03:59:38;7.10;99.90
5962;DHT22;3007;50.770;0.250;2023-12-04T04:02:05;7.10;99.90
5962;DHT22;3007;50.770;0.250;2023-12-04T04:04:32;7.10;99.90
5962;DHT22;3007;50.770;0.250;2023-12-04T04:06:59;7.10;99.90
5962;DHT22;3007;50.770;0.250;2023-12-04T04:09:27;7.10;99.90
5962;DHT22;3007;50.770;0.250;2023-12-04T04:11:54;7.10;99.90
5962;DHT22;3007;50.770;0.250;2023-12-04T04:14:20;7.10;99.90
5962;DHT22;3007;50.770;0.250;2023-12-04T04:16:48;7.00;99.90
5962;DHT22;3007;50.770;0.250;2023-12-04T04:19:15;7.00;99.90
5962;DHT22;3007;50.770;0.250;2023-12-04T04:21:42;7.00;99.90
5962;DHT22;3007;50.770;0.250;2023-12-04T04:24:09;7.00;99.90
5962;DHT22;3007;50.770;0.250;2023-12-04T04:26:37;7.10;99.90
5962;DHT22;3007;50.770;0.250;2023-12-04T04:29:04;7.10;99.90
5962;DHT22;3007;50.770;0.250;2023-12-04T04:31:31;7.10;99.90
5962;DHT22;3007;50.770;0.250;2023-12-04T04:33:58;7.10;99.90
5962;DHT22;3007;50.770;0.250;2023-12-04T04:36:25;7.10;99.90
5962;DHT22;3007;50.770;0.250;2023-12-04T04:38:52;7.00;99.90
5962;DHT22;3007;50.770;0.250;2023-12-04T04:41:20;7.00;99.90
5962;DHT22;3007;50.770;0.250;2023-12-04T04:43:49;7.00;99.90
5962;DHT22;3007;50.770;0.250;2023-12-04T04:46:16;7.00;99.90
5962;DHT22;3007;50.770;0.250;2023-12-04T04:48:42;7.00;99.90
5962;DHT22;3007;50.770;0.250;2023-12-04T04:51:10;7.00;99.90
5962;DHT22;3007;50.770;0.250;2023-12-04T04:53:38;7.00;99.90
5962;DHT22;3007;50.770;0.250;2023-12-04T04:56:09;7.00;99.90
5962;DHT22;3007;50.770;0.250;2023-12-04T04:58:37;7.00;99.90
5962;DHT22;3007;50.770;0.250;2023-12-04T05:01:07;7.00;99.90
5962;DHT22;3007;50.770;0.250;2023-12-04T05:03:34;7.00;99.90
5962;DHT22;3007;50.770;0.250;2023-12-04T05:06:01;7.00;99.90
5962;DHT22;3007;50.770;0.250;2023-12-04T05:08:28;7.00;99.90
5962;DHT22;3007;50.770;0.250;2023-12-04T05:10:55;6.90;99.90
5962;DHT22;3007;50.770;0.250;2023-12-04T05:13:23;7.00;99.90
5962;DHT22;3007;50.770;0.250;2023-12-04T05:15:49;6.90;99.90
5962;DHT22;3007;50.770;0.250;2023-12-04T05:18:18;7.00;99.90
5962;DHT22;3007;50.770;0.250;2023-12-04T05:20:44;6.90;99.90
5962;DHT22;3007;50.770;0.250;2023-12-04T05:23:12;6.90;99.90
5962;DHT22;3007;50.770;0.250;2023-12-04T05:25:39;6.90;99.90
5962;DHT22;3007;50.770;0.250;2023-12-04T05:28:06;7.00;99.90
5962;DHT22;3007;50.770;0.250;2023-12-04T05:30:34;7.00;99.90
5962;DHT22;3007;50.770;0.250;2023-12-04T05:33:01;7.00;99.90
5962;DHT22;3007;50.770;0.250;2023-12-04T05:35:29;7.00;99.90
5962;DHT22;3007;50.770;0.250;2023-12-04T05:37:59;7.00;99.90
5962;DHT22;3007;50.770;0.250;2023-12-04T05:40:26;7.10;99.90
5962;DHT22;3007;50.770;0.250;2023-12-04T05:42:52;7.10;99.90
5962;DHT22;3007;50.770;0.250;2023-12-04T05:45:19;7.10;99.90
5962;DHT22;3007;50.770;0.250;2023-12-04T05:47:46;7.10;99.90
5962;DHT22;3007;50.770;0.250;2023-12-04T05:50:13;7.10;99.90
5962;DHT22;3007;50.770;0.250;2023-12-04T05:52:41;7.20;99.90
5962;DHT22;3007;50.770;0.250;2023-12-04T05:55:09;7.20;99.90
5962;DHT22;3007;50.770;0.250;2023-12-04T05:57:38;7.20;99.90
5962;DHT22;3007;50.770;0.250;2023-12-04T06:00:06;7.20;99.90
5962;DHT22;3007;50.770;0.250;2023-12-04T06:02:38;7.20;99.90
5962;DHT22;3007;50.770;0.250;2023-12-04T06:05:05;7.20;99.90
5962;DHT22;3007;50.770;0.250;2023-12-04T06:07:36;7.20;99.90
5962;DHT22;3007;50.770;0.250;2023-12-04T06:10:05;7.20;99.90
5962;DHT22;3007;50.770;0.250;2023-12-04T06:12:33;7.20;99.90
5962;DHT22;3007;50.770;0.250;2023-12-04T06:15:00;7.20;99.90
5962;DHT22;3007;50.770;0.250;2023-12-04T06:17:27;7.20;99.90
5962;DHT22;3007;50.770;0.250;2023-12-04T06:19:54;7.20;99.90
5962;DHT22;3007;50.770;0.250;2023-12-04T06:22:24;7.30;99.90
5962;DHT22;3007;50.770;0.250;2023-12-04T06:24:52;7.30;99.90
5962;DHT22;3007;50.770;0.250;2023-12-04T06:27:21;7.30;99.90
5962;DHT22;3007;50.770;0.250;2023-12-04T06:29:49;7.30;99.90
5962;DHT22;3007;50.770;0.250;2023-12-04T06:32:17;7.30;99.90
5962;DHT22;3007;50.770;0.250;2023-12-04T06:34:45;7.30;99.90
5962;DHT22;3007;50.770;0.250;2023-12-04T06:37:13;7.30;99.90
5962;DHT22;3007;50.770;0.250;2023-12-04T06:39:40;7.30;99.90
5962;DHT22;3007;50.770;0.250;2023-12-04T06:42:08;7.30;99.90
5962;DHT22;3007;50.770;0.250;2023-12-04T06:44:38;7.30;99.90
5962;DHT22;3007;50.770;0.250;2023-12-04T06:47:08;7.30;99.90
5962;DHT22;3007;50.770;0.250;2023-12-04T06:49:35;7.30;99.90
5962;DHT22;3007;50.770;0.250;2023-12-04T06:52:02;7.30;99.90
5962;DHT22;3007;50.770;0.250;2023-12-04T06:54:29;7.30;99.90
5962;DHT22;3007;50.770;0.250;2023-12-04T06:56:55;7.40;99.90
5962;DHT22;3007;50.770;0.250;2023-12-04T06:59:22;7.30;99.90
5962;DHT22;3007;50.770;0.250;2023-12-04T07:01:50;7.30;99.90
5962;DHT22;3007;50.770;0.250;2023-12-04T07:04:17;7.30;99.90
5962;DHT22;3007;50.770;0.250;2023-12-04T07:06:46;7.30;99.90
5962;DHT22;3007;50.770;0.250;2023-12-04T07:09:14;7.30;99.90
5962;DHT22;3007;50.770;0.250;2023-12-04T07:11:42;7.30;99.90
5962;DHT22;3007;50.770;0.250;2023-12-04T07:14:09;7.30;99.90
5962;DHT22;3007;50.770;0.250;2023-12-04T07:16:40;7.30;99.90
5962;DHT22;3007;50.770;0.250;2023-12-04T07:19:21;7.30;99.90
5962;DHT22;3007;50.770;0.250;2023-12-04T07:21:48;7.30;99.90
5962;DHT22;3007;50.770;0.250;2023-12-04T07:24:15;7.30;99.90
5962;DHT22;3007;50.770;0.250;2023-12-04T07:26:42;7.30;99.90
5962;DHT22;3007;50.770;0.250;2023-12-04T07:29:09;7.30;99.90
5962;DHT22;3007;50.770;0.250;2023-12-04T07:31:36;7.40;99.90
5962;DHT22;3007;50.770;0.250;2023-12-04T07:34:03;7.50;99.90
5962;DHT22;3007;50.770;0.250;2023-12-04T07:36:31;7.50;99.90
5962;DHT22;3007;50.770;0.250;2023-12-04T07:38:58;7.50;99.90
5962;DHT22;3007;50.770;0.250;2023-12-04T07:41:25;7.40;99.90
5962;DHT22;3007;50.770;0.250;2023-12-04T07:43:52;7.40;99.90
5962;DHT22;3007;50.770;0.250;2023-12-04T07:46:20;7.40;99.90
5962;DHT22;3007;50.770;0.250;2023-12-04T07:48:47;7.40;99.90
5962;DHT22;3007;50.770;0.250;2023-12-04T07:51:13;7.50;99.90
5962;DHT22;3007;50.770;0.250;2023-12-04T07:53:42;7.40;99.90
5962;DHT22;3007;50.770;0.250;2023-12-04T07:56:11;7.50;99.90
5962;DHT22;3007;50.770;0.250;2023-12-04T07:58:39;7.40;99.90
5962;DHT22;3007;50.770;0.250;2023-12-04T08:01:07;7.40;99.90
5962;DHT22;3007;50.770;0.250;2023-12-04T08:03:34;7.50;99.90
5962;DHT22;3007;50.770;0.250;2023-12-04T08:06:03;7.50;99.90
5962;DHT22;3007;50.770;0.250;2023-12-04T08:08:30;7.40;99.90
5962;DHT22;3007;50.770;0.250;2023-12-04T08:10:58;7.50;99.90
5962;DHT22;3007;50.770;0.250;2023-12-04T08:13:25;7.50;99.90
5962;DHT22;3007;50.770;0.250;2023-12-04T08:15:52;7.50;99.90
5962;DHT22;3007;50.770;0.250;2023-12-04T08:18:19;7.50;99.90
5962;DHT22;3007;50.770;0.250;2023-12-04T08:20:46;7.50;99.90
5962;DHT22;3007;50.770;0.250;2023-12-04T08:23:13;7.50;99.90
5962;DHT22;3007;50.770;0.250;2023-12-04T08:25:40;7.60;99.90
5962;DHT22;3007;50.770;0.250;2023-12-04T08:28:09;7.60;99.90
5962;DHT22;3007;50.770;0.250;2023-12-04T08:30:36;7.60;99.90
5962;DHT22;3007;50.770;0.250;2023-12-04T08:33:07;7.60;99.90
5962;DHT22;3007;50.770;0.250;2023-12-04T08:35:34;7.60;99.90
5962;DHT22;3007;50.770;0.250;2023-12-04T08:38:01;7.60;99.90
5962;DHT22;3007;50.770;0.250;2023-12-04T08:40:27;7.60;99.90
5962;DHT22;3007;50.770;0.250;2023-12-04T08:42:54;7.60;99.90
5962;DHT22;3007;50.770;0.250;2023-12-04T08:45:23;7.70;99.90
5962;DHT22;3007;50.770;0.250;2023-12-04T08:47:50;7.70;99.90
5962;DHT22;3007;50.770;0.250;2023-12-04T08:50:17;8.10;99.90
5962;DHT22;3007;50.770;0.250;2023-12-04T08:52:44;7.70;99.90
5962;DHT22;3007;50.770;0.250;2023-12-04T08:55:11;8.70;99.90
5962;DHT22;3007;50.770;0.250;2023-12-04T08:57:38;7.70;99.90
5962;DHT22;3007;50.770;0.250;2023-12-04T09:00:06;7.80;99.90
5962;DHT22;3007;50.770;0.250;2023-12-04T09:02:35;7.80;99.90
5962;DHT22;3007;50.770;0.250;2023-12-04T09:05:02;7.80;99.90
5962;DHT22;3007;50.770;0.250;2023-12-04T09:07:30;7.90;99.90
5962;DHT22;3007;50.770;0.250;2023-12-04T09:09:57;7.90;99.90
5962;DHT22;3007;50.770;0.250;2023-12-04T09:12:24;7.80;99.90
5962;DHT22;3007;50.770;0.250;2023-12-04T09:14:51;7.90;99.90
5962;DHT22;3007;50.770;0.250;2023-12-04T09:17:18;7.90;99.90
5962;DHT22;3007;50.770;0.250;2023-12-04T09:19:47;7.80;99.90
5962;DHT22;3007;50.770;0.250;2023-12-04T09:22:14;7.90;99.90
5962;DHT22;3007;50.770;0.250;2023-12-04T09:24:41;7.90;99.90
5962;DHT22;3007;50.770;0.250;2023-12-04T09:27:08;7.90;99.90
5962;DHT22;3007;50.770;0.250;2023-12-04T09:29:35;7.90;99.90
5962;DHT22;3007;50.770;0.250;2023-12-04T09:32:04;7.90;99.90
5962;DHT22;3007;50.770;0.250;2023-12-04T09:34:31;7.90;99.90
5962;DHT22;3007;50.770;0.250;2023-12-04T09:37:00;7.90;99.90
5962;DHT22;3007;50.770;0.250;2023-12-04T09:39:27;7.90;99.90
5962;DHT22;3007;50.770;0.250;2023-12-04T09:41:57;8.00;99.90
5962;DHT22;3007;50.770;0.250;2023-12-04T09:44:27;8.00;99.90
5962;DHT22;3007;50.770;0.250;2023-12-04T09:46:55;8.00;99.90
5962;DHT22;3007;50.770;0.250;2023-12-04T09:49:23;8.00;99.90
5962;DHT22;3007;50.770;0.250;2023-12-04T09:51:50;8.00;99.90
5962;DHT22;3007;50.770;0.250;2023-12-04T09:54:20;8.00;99.90
5962;DHT22;3007;50.770;0.250;2023-12-04T09:56:47;8.00;99.90
5962;DHT22;3007;50.770;0.250;2023-12-04T09:59:17;8.00;99.90
5962;DHT22;3007;50.770;0.250;2023-12-04T10:01:45;8.00;99.90
5962;DHT22;3007;50.770;0.250;2023-12-04T10:04:13;8.00;99.90
5962;DHT22;3007;50.770;0.250;2023-12-04T10:06:40;8.00;99.90
5962;DHT22;3007;50.770;0.250;2023-12-04T10:09:08;8.00;99.90
5962;DHT22;3007;50.770;0.250;2023-12-04T10:11:41;8.00;99.90
5962;DHT22;3007;50.770;0.250;2023-12-04T10:14:21;8.00;99.90
5962;DHT22;3007;50.770;0.250;2023-12-04T10:16:48;8.10;99.90
5962;DHT22;3007;50.770;0.250;2023-12-04T10:19:17;8.10;99.90
5962;DHT22;3007;50.770;0.250;2023-12-04T10:21:44;8.10;99.90
5962;DHT22;3007;50.770;0.250;2023-12-04T10:24:11;8.10;99.90
5962;DHT22;3007;50.770;0.250;2023-12-04T10:26:50;8.10;99.90
5962;DHT22;3007;50.770;0.250;2023-12-04T10:29:20;8.10;99.90
5962;DHT22;3007;50.770;0.250;2023-12-04T10:31:50;8.10;99.90
5962;DHT22;3007;50.770;0.250;2023-12-04T10:34:18;8.00;99.90
5962;DHT22;3007;50.770;0.250;2023-12-04T10:36:47;8.10;99.90
5962;DHT22;3007;50.770;0.250;2023-12-04T10:39:13;8.10;99.90
5962;DHT22;3007;50.770;0.250;2023-12-04T10:41:41;8.10;99.90
5962;DHT22;3007;50.770;0.250;2023-12-04T10:44:10;8.10;99.90
5962;DHT22;3007;50.770;0.250;2023-12-04T10:46:43;8.10;99.90
5962;DHT22;3007;50.770;0.250;2023-12-04T10:49:13;8.10;99.90
5962;DHT22;3007;50.770;0.250;2023-12-04T10:51:44;8.10;99.90
5962;DHT22;3007;50.770;0.250;2023-12-04T10:54:11;8.10;99.90
5962;DHT22;3007;50.770;0.250;2023-12-04T10:56:40;8.10;99.90
5962;DHT22;3007;50.770;0.250;2023-12-04T10:59:15;8.20;99.90
5962;DHT22;3007;50.770;0.250;2023-12-04T11:01:46;8.20;99.90
5962;DHT22;3007;50.770;0.250;2023-12-04T11:04:17;8.20;99.90
5962;DHT22;3007;50.770;0.250;2023-12-04T11:06:48;8.20;99.90
5962;DHT22;3007;50.770;0.250;2023-12-04T11:09:17;8.20;99.90
5962;DHT22;3007;50.770;0.250;2023-12-04T11:11:48;8.20;99.90
5962;DHT22;3007;50.770;0.250;2023-12-04T11:14:21;8.20;99.90
5962;DHT22;3007;50.770;0.250;2023-12-04T11:16:51;8.20;99.90
5962;DHT22;3007;50.770;0.250;2023-12-04T11:19:23;8.30;99.90
5962;DHT22;3007;50.770;0.250;2023-12-04T11:21:53;8.30;99.90
5962;DHT22;3007;50.770;0.250;2023-12-04T11:24:23;8.30;99.90
5962;DHT22;3007;50.770;0.250;2023-12-04T11:26:51;8.40;99.90
5962;DHT22;3007;50.770;0.250;2023-12-04T11:29:20;8.40;99.90
5962;DHT22;3007;50.770;0.250;2023-12-04T11:31:48;8.30;99.90
5962;DHT22;3007;50.770;0.250;2023-12-04T11:34:15;8.50;99.90
5962;DHT22;3007;50.770;0.250;2023-12-04T11:36:42;8.50;99.90
5962;DHT22;3007;50.770;0.250;2023-12-04T11:39:10;8.50;99.90
5962;DHT22;3007;50.770;0.250;2023-12-04T11:41:38;8.60;99.90
5962;DHT22;3007;50.770;0.250;2023-12-04T11:44:13;8.60;99.90
5962;DHT22;3007;50.770;0.250;2023-12-04T11:46:55;8.60;99.90
5962;DHT22;3007;50.770;0.250;2023-12-04T11:49:29;8.60;99.90
5962;DHT22;3007;50.770;0.250;2023-12-04T11:51:59;8.60;99.90
5962;DHT22;3007;50.770;0.250;2023-12-04T11:54:59;8.60;99.90
5962;DHT22;3007;50.770;0.250;2023-12-04T11:57:32;8.90;99.90
5962;DHT22;3007;50.770;0.250;2023-12-04T12:00:13;8.60;99.90
5962;DHT22;3007;50.770;0.250;2023-12-04T12:02:47;8.60;99.90
5962;DHT22;3007;50.770;0.250;2023-12-04T12:05:15;8.60;99.90
5962;DHT22;3007;50.770;0.250;2023-12-04T12:07:42;8.60;99.90
5962;DHT22;3007;50.770;0.250;2023-12-04T12:10:10;8.60;99.90
5962;DHT22;3007;50.770;0.250;2023-12-04T12:12:39;8.70;99.90
5962;DHT22;3007;50.770;0.250;2023-12-04T12:15:08;8.60;99.90
5962;DHT22;3007;50.770;0.250;2023-12-04T12:17:35;8.50;99.90
5962;DHT22;3007;50.770;0.250;2023-12-04T12:20:06;8.60;99.90
5962;DHT22;3007;50.770;0.250;2023-12-04T12:22:35;8.60;99.90
5962;DHT22;3007;50.770;0.250;2023-12-04T12:25:10;8.60;99.90
5962;DHT22;3007;50.770;0.250;2023-12-04T12:27:37;8.60;99.90
5962;DHT22;3007;50.770;0.250;2023-12-04T12:30:05;8.50;99.90
5962;DHT22;3007;50.770;0.250;2023-12-04T12:32:33;8.50;99.90
5962;DHT22;3007;50.770;0.250;2023-12-04T12:35:03;8.60;99.90
5962;DHT22;3007;50.770;0.250;2023-12-04T12:37:31;8.60;99.90
5962;DHT22;3007;50.770;0.250;2023-12-04T12:39:58;8.60;99.90
5962;DHT22;3007;50.770;0.250;2023-12-04T12:42:27;8.60;99.90
5962;DHT22;3007;50.770;0.250;2023-12-04T12:44:55;8.60;99.90
5962;DHT22;3007;50.770;0.250;2023-12-04T12:47:22;8.70;99.90
5962;DHT22;3007;50.770;0.250;2023-12-04T12:49:49;8.70;99.90
5962;DHT22;3007;50.770;0.250;2023-12-04T12:52:19;8.70;99.90
5962;DHT22;3007;50.770;0.250;2023-12-04T12:54:52;8.70;99.90
5962;DHT22;3007;50.770;0.250;2023-12-04T12:57:18;8.70;99.90
5962;DHT22;3007;50.770;0.250;2023-12-04T12:59:49;8.80;99.90
5962;DHT22;3007;50.770;0.250;2023-12-04T13:02:16;8.70;99.90
5962;DHT22;3007;50.770;0.250;2023-12-04T13:04:44;8.70;99.90
5962;DHT22;3007;50.770;0.250;2023-12-04T13:07:11;8.70;99.90
5962;DHT22;3007;50.770;0.250;2023-12-04T13:09:37;8.80;99.90
5962;DHT22;3007;50.770;0.250;2023-12-04T13:12:06;8.70;99.90
5962;DHT22;3007;50.770;0.250;2023-12-04T13:14:35;8.70;99.90
5962;DHT22;3007;50.770;0.250;2023-12-04T13:17:02;8.80;99.90
5962;DHT22;3007;50.770;0.250;2023-12-04T13:19:30;8.80;99.90
5962;DHT22;3007;50.770;0.250;2023-12-04T13:22:00;8.70;99.90
5962;DHT22;3007;50.770;0.250;2023-12-04T13:24:26;8.80;99.90
5962;DHT22;3007;50.770;0.250;2023-12-04T13:26:55;8.80;99.90
5962;DHT22;3007;50.770;0.250;2023-12-04T13:29:23;8.80;99.90
5962;DHT22;3007;50.770;0.250;2023-12-04T13:31:50;8.80;99.90
5962;DHT22;3007;50.770;0.250;2023-12-04T13:34:19;8.80;99.90
5962;DHT22;3007;50.770;0.250;2023-12-04T13:36:47;8.80;99.90
5962;DHT22;3007;50.770;0.250;2023-12-04T13:39:14;8.80;99.90
5962;DHT22;3007;50.770;0.250;2023-12-04T13:41:46;8.80;99.90
5962;DHT22;3007;50.770;0.250;2023-12-04T13:44:32;8.80;99.90
5962;DHT22;3007;50.770;0.250;2023-12-04T13:46:59;8.80;99.90
5962;DHT22;3007;50.770;0.250;2023-12-04T13:49:26;8.80;99.90
5962;DHT22;3007;50.770;0.250;2023-12-04T13:51:54;8.80;99.90
5962;DHT22;3007;50.770;0.250;2023-12-04T13:54:21;8.80;99.90
5962;DHT22;3007;50.770;0.250;2023-12-04T13:57:00;8.90;99.90
5962;DHT22;3007;50.770;0.250;2023-12-04T13:59:29;8.80;99.90
5962;DHT22;3007;50.770;0.250;2023-12-04T14:01:59;8.90;99.90
5962;DHT22;3007;50.770;0.250;2023-12-04T14:04:29;8.90;99.90
5962;DHT22;3007;50.770;0.250;2023-12-04T14:06:56;8.90;99.90
5962;DHT22;3007;50.770;0.250;2023-12-04T14:09:23;8.90;99.90
5962;DHT22;3007;50.770;0.250;2023-12-04T14:11:50;8.90;99.90
5962;DHT22;3007;50.770;0.250;2023-12-04T14:14:17;8.90;99.90
5962;DHT22;3007;50.770;0.250;2023-12-04T14:16:44;8.90;99.90
5962;DHT22;3007;50.770;0.250;2023-12-04T14:19:13;8.90;99.90
5962;DHT22;3007;50.770;0.250;2023-12-04T14:21:42;8.90;99.90
5962;DHT22;3007;50.770;0.250;2023-12-04T14:24:09;8.90;99.90
5962;DHT22;3007;50.770;0.250;2023-12-04T14:26:36;8.90;99.90
5962;DHT22;3007;50.770;0.250;2023-12-04T14:29:03;8.90;99.90
5962;DHT22;3007;50.770;0.250;2023-12-04T14:31:32;8.90;99.90
5962;DHT22;3007;50.770;0.250;2023-12-04T14:33:58;8.90;99.90
5962;DHT22;3007;50.770;0.250;2023-12-04T14:36:27;9.00;99.90
5962;DHT22;3007;50.770;0.250;2023-12-04T14:38:54;9.00;99.90
5962;DHT22;3007;50.770;0.250;2023-12-04T14:41:21;9.00;99.90
5962;DHT22;3007;50.770;0.250;2023-12-04T14:43:49;9.00;99.90
5962;DHT22;3007;50.770;0.250;2023-12-04T14:46:16;9.00;99.90
5962;DHT22;3007;50.770;0.250;2023-12-04T14:48:43;9.00;99.90
5962;DHT22;3007;50.770;0.250;2023-12-04T14:51:10;9.00;99.90
5962;DHT22;3007;50.770;0.250;2023-12-04T14:53:38;9.00;99.90
5962;DHT22;3007;50.770;0.250;2023-12-04T14:56:16;9.10;99.90
5962;DHT22;3007;50.770;0.250;2023-12-04T14:58:51;9.00;99.90
5962;DHT22;3007;50.770;0.250;2023-12-04T15:01:41;9.10;99.90
5962;DHT22;3007;50.770;0.250;2023-12-04T15:04:31;9.10;99.90
5962;DHT22;3007;50.770;0.250;2023-12-04T15:07:16;9.00;99.90
5962;DHT22;3007;50.770;0.250;2023-12-04T15:10:03;9.10;99.90
5962;DHT22;3007;50.770;0.250;2023-12-04T15:13:06;9.10;99.90
5962;DHT22;3007;50.770;0.250;2023-12-04T15:16:05;9.10;99.90
5962;DHT22;3007;50.770;0.250;2023-12-04T15:18:57;9.00;99.90
5962;DHT22;3007;50.770;0.250;2023-12-04T15:21:53;9.10;99.90
5962;DHT22;3007;50.770;0.250;2023-12-04T15:24:21;9.00;99.90
5962;DHT22;3007;50.770;0.250;2023-12-04T15:26:48;9.10;99.90
5962;DHT22;3007;50.770;0.250;2023-12-04T15:29:15;9.00;99.90
5962;DHT22;3007;50.770;0.250;2023-12-04T15:31:44;9.10;99.90
5962;DHT22;3007;50.770;0.250;2023-12-04T15:34:11;9.10;99.90
5962;DHT22;3007;50.770;0.250;2023-12-04T15:36:40;9.10;99.90
5962;DHT22;3007;50.770;0.250;2023-12-04T15:39:07;9.10;99.90
5962;DHT22;3007;50.770;0.250;2023-12-04T15:41:35;9.10;99.90
5962;DHT22;3007;50.770;0.250;2023-12-04T15:44:04;9.10;99.90
5962;DHT22;3007;50.770;0.250;2023-12-04T15:46:30;9.10;99.90
5962;DHT22;3007;50.770;0.250;2023-12-04T15:48:57;9.10;99.90
5962;DHT22;3007;50.770;0.250;2023-12-04T15:51:24;9.60;99.90
5962;DHT22;3007;50.770;0.250;2023-12-04T15:53:51;9.10;99.90
5962;DHT22;3007;50.770;0.250;2023-12-04T15:56:17;9.10;99.90
5962;DHT22;3007;50.770;0.250;2023-12-04T15:58:43;9.10;99.90
5962;DHT22;3007;50.770;0.250;2023-12-04T16:01:11;9.10;99.90
5962;DHT22;3007;50.770;0.250;2023-12-04T16:03:38;9.10;99.90
5962;DHT22;3007;50.770;0.250;2023-12-04T16:06:05;9.00;99.90
5962;DHT22;3007;50.770;0.250;2023-12-04T16:08:32;9.10;99.90
5962;DHT22;3007;50.770;0.250;2023-12-04T16:10:59;9.10;99.90
5962;DHT22;3007;50.770;0.250;2023-12-04T16:13:25;9.10;99.90
5962;DHT22;3007;50.770;0.250;2023-12-04T16:15:53;9.10;99.90
5962;DHT22;3007;50.770;0.250;2023-12-04T16:18:21;9.10;99.90
5962;DHT22;3007;50.770;0.250;2023-12-04T16:20:48;9.10;99.90
5962;DHT22;3007;50.770;0.250;2023-12-04T16:23:15;9.10;99.90
5962;DHT22;3007;50.770;0.250;2023-12-04T16:25:44;9.10;99.90